createdAt,value
2022-12-23T00:01:15.651Z,5.69
2022-12-23T00:03:43.677Z,5.60
2022-12-23T00:06:13.479Z,5.85
2022-12-23T00:08:41.704Z,5.73
2022-12-23T00:11:16.079Z,5.81
2022-12-23T00:14:02.510Z,5.69
2022-12-23T00:16:29.848Z,5.76
2022-12-23T00:18:57.463Z,5.73
2022-12-23T00:21:24.555Z,5.69
2022-12-23T00:23:52.064Z,5.74
2022-12-23T00:26:27.210Z,5.04
2022-12-23T00:28:58.651Z,5.07
2022-12-23T00:31:26.146Z,4.94
2022-12-23T00:33:54.377Z,4.96
2022-12-23T00:36:29.649Z,4.92
2022-12-23T00:39:17.422Z,4.95
2022-12-23T00:42:04.437Z,4.90
2022-12-23T00:44:32.046Z,4.91
2022-12-23T00:46:59.560Z,5.08
2022-12-23T00:49:41.875Z,4.86
2022-12-23T00:52:12.502Z,5.40
2022-12-23T00:54:39.818Z,5.74
2022-12-23T00:57:07.612Z,5.05
2022-12-23T00:59:35.172Z,5.67
2022-12-23T01:02:21.972Z,5.65
2022-12-23T01:05:07.829Z,5.65
2022-12-23T01:07:35.342Z,5.43
2022-12-23T01:10:02.459Z,5.64
2022-12-23T01:12:29.913Z,5.41
2022-12-23T01:14:57.097Z,5.31
2022-12-23T01:17:24.593Z,4.86
2022-12-23T01:19:51.684Z,4.89
2022-12-23T01:22:19.128Z,5.02
2022-12-23T01:24:46.242Z,4.86
2022-12-23T01:27:13.645Z,4.89
2022-12-23T01:29:40.799Z,4.94
2022-12-23T01:32:08.283Z,4.93
2022-12-23T01:34:37.437Z,4.82
2022-12-23T01:37:05.806Z,4.86
2022-12-23T01:39:32.980Z,4.90
2022-12-23T01:42:18.818Z,4.88
2022-12-23T01:44:50.084Z,4.94
2022-12-23T01:47:23.636Z,4.84
2022-12-23T01:49:55.912Z,4.96
2022-12-23T01:52:23.807Z,4.87
2022-12-23T01:54:51.388Z,4.91
2022-12-23T01:57:19.198Z,4.96
2022-12-23T02:00:05.051Z,4.92
2022-12-23T02:02:55.372Z,4.78
2022-12-23T02:05:23.249Z,4.79
2022-12-23T02:08:10.869Z,4.71
2022-12-23T02:11:06.356Z,4.80
2022-12-23T02:13:36.402Z,4.68
2022-12-23T02:16:17.507Z,4.71
2022-12-23T02:19:10.474Z,4.81
2022-12-23T02:21:40.431Z,4.71
2022-12-23T02:24:56.640Z,4.77
2022-12-23T02:27:29.589Z,4.75
2022-12-23T02:30:06.093Z,4.76
2022-12-23T02:33:01.238Z,4.91
2022-12-23T02:35:56.821Z,4.83
2022-12-23T02:38:27.885Z,4.85
2022-12-23T02:41:26.952Z,4.97
2022-12-23T02:44:02.689Z,4.95
2022-12-23T02:46:38.249Z,4.86
2022-12-23T02:49:13.845Z,4.97
2022-12-23T02:51:46.706Z,4.94
2022-12-23T02:54:31.552Z,4.90
2022-12-23T02:57:03.060Z,4.87
2022-12-23T02:59:46.475Z,4.94
2022-12-23T03:02:13.906Z,4.90
2022-12-23T03:04:42.299Z,4.90
2022-12-23T03:07:35.431Z,5.09
2022-12-23T03:10:20.417Z,5.14
2022-12-23T03:12:50.427Z,5.12
2022-12-23T03:15:33.345Z,5.05
2022-12-23T03:18:28.525Z,5.06
2022-12-23T03:21:16.259Z,5.20
2022-12-23T03:23:55.383Z,5.11
2022-12-23T03:26:38.588Z,5.09
2022-12-23T03:29:13.931Z,5.00
2022-12-23T03:31:42.919Z,5.10
2022-12-23T03:34:18.852Z,5.10
2022-12-23T03:36:56.750Z,5.07
2022-12-23T03:39:31.120Z,5.08
2022-12-23T03:42:20.374Z,5.03
2022-12-23T03:45:19.289Z,4.95
2022-12-23T03:47:46.739Z,5.12
2022-12-23T03:50:17.493Z,5.01
2022-12-23T03:52:55.928Z,5.01
2022-12-23T03:55:33.385Z,5.17
2022-12-23T03:58:32.799Z,5.13
2022-12-23T04:01:23.598Z,5.03
2022-12-23T04:03:58.644Z,5.10
2022-12-23T04:06:30.981Z,5.08
2022-12-23T04:08:58.831Z,5.04
2022-12-23T04:11:26.167Z,5.11
2022-12-23T04:13:53.555Z,5.13
2022-12-23T04:16:21.110Z,5.05
2022-12-23T04:18:48.170Z,5.02
2022-12-23T04:21:15.529Z,4.97
2022-12-23T04:23:42.539Z,5.02
2022-12-23T04:26:09.933Z,4.94
2022-12-23T04:28:36.926Z,5.02
2022-12-23T04:31:04.472Z,4.98
2022-12-23T04:33:31.642Z,5.02
2022-12-23T04:36:02.026Z,4.98
2022-12-23T04:38:29.182Z,4.92
2022-12-23T04:40:56.495Z,4.93
2022-12-23T04:43:23.591Z,4.95
2022-12-23T04:45:51.866Z,4.93
2022-12-23T04:48:19.494Z,4.95
2022-12-23T04:50:46.855Z,5.05
2022-12-23T04:53:13.929Z,4.89
2022-12-23T04:55:41.212Z,5.00
2022-12-23T04:58:08.345Z,4.89
2022-12-23T05:00:39.488Z,5.00
2022-12-23T05:03:07.343Z,4.95
2022-12-23T05:05:34.776Z,4.87
2022-12-23T05:08:05.829Z,4.96
2022-12-23T05:10:33.352Z,5.04
2022-12-23T05:13:00.501Z,5.00
2022-12-23T05:15:27.813Z,4.97
2022-12-23T05:17:54.933Z,5.01
2022-12-23T05:20:22.298Z,4.90
2022-12-23T05:22:49.279Z,4.94
2022-12-23T05:25:16.796Z,4.94
2022-12-23T05:27:43.891Z,4.97
2022-12-23T05:30:11.581Z,4.98
2022-12-23T05:32:39.347Z,4.97
2022-12-23T05:35:07.073Z,4.94
2022-12-23T05:37:34.089Z,4.89
2022-12-23T05:40:01.431Z,4.99
2022-12-23T05:42:28.620Z,4.93
2022-12-23T05:44:56.038Z,4.99
2022-12-23T05:47:23.128Z,4.88
2022-12-23T05:49:50.690Z,5.02
2022-12-23T05:52:17.637Z,4.97
2022-12-23T05:54:44.913Z,4.99
2022-12-23T05:57:12.091Z,4.95
2022-12-23T05:59:39.540Z,5.02
2022-12-23T06:02:06.695Z,5.16
2022-12-23T06:04:34.236Z,4.98
2022-12-23T06:07:01.302Z,4.92
2022-12-23T06:09:28.637Z,4.95
2022-12-23T06:11:55.753Z,5.37
2022-12-23T06:14:28.556Z,5.49
2022-12-23T06:16:56.434Z,5.53
2022-12-23T06:19:24.199Z,5.45
2022-12-23T06:21:51.255Z,5.31
2022-12-23T06:24:18.572Z,5.47
2022-12-23T06:26:45.833Z,5.42
2022-12-23T06:29:13.254Z,5.40
2022-12-23T06:31:40.365Z,5.34
2022-12-23T06:34:07.638Z,5.30
2022-12-23T06:36:34.800Z,5.52
2022-12-23T06:39:02.122Z,5.54
2022-12-23T06:41:29.183Z,5.58
2022-12-23T06:43:56.693Z,5.48
2022-12-23T06:46:23.852Z,5.40
2022-12-23T06:48:51.415Z,5.31
2022-12-23T06:51:18.837Z,5.52
2022-12-23T06:53:46.222Z,5.38
2022-12-23T06:56:13.345Z,5.40
2022-12-23T06:58:40.751Z,5.42
2022-12-23T07:01:09.995Z,5.33
2022-12-23T07:03:37.622Z,5.27
2022-12-23T07:06:05.076Z,5.48
2022-12-23T07:08:32.388Z,5.47
2022-12-23T07:11:00.375Z,5.33
2022-12-23T07:13:27.794Z,5.34
2022-12-23T07:15:55.333Z,4.78
2022-12-23T07:18:23.701Z,4.90
2022-12-23T07:20:51.624Z,4.82
2022-12-23T07:23:18.989Z,4.94
2022-12-23T07:25:46.086Z,4.81
2022-12-23T07:28:13.470Z,4.87
2022-12-23T07:30:40.527Z,4.84
2022-12-23T07:33:07.959Z,4.87
2022-12-23T07:35:35.308Z,4.79
2022-12-23T07:38:02.837Z,4.65
2022-12-23T07:40:29.848Z,4.82
2022-12-23T07:42:58.904Z,4.81
2022-12-23T07:45:27.786Z,4.98
2022-12-23T07:47:56.544Z,4.77
2022-12-23T07:50:24.604Z,4.82
2022-12-23T07:52:53.409Z,4.85
2022-12-23T07:55:21.038Z,4.88
2022-12-23T07:57:49.775Z,4.74
2022-12-23T08:00:18.206Z,4.69
2022-12-23T08:02:46.606Z,4.97
2022-12-23T08:05:14.958Z,5.30
2022-12-23T08:07:45.005Z,4.84
2022-12-23T08:10:13.095Z,4.83
2022-12-23T08:12:40.438Z,4.93
2022-12-23T08:15:08.138Z,4.82
2022-12-23T08:17:35.509Z,4.77
2022-12-23T08:20:02.727Z,4.94
2022-12-23T08:22:31.970Z,4.83
2022-12-23T08:24:59.766Z,4.92
2022-12-23T08:27:27.516Z,4.90
2022-12-23T08:29:55.320Z,4.94
2022-12-23T08:32:25.425Z,4.92
2022-12-23T08:34:52.584Z,4.85
2022-12-23T08:37:20.119Z,4.87
2022-12-23T08:39:47.372Z,4.85
2022-12-23T08:42:15.881Z,5.04
2022-12-23T08:44:43.015Z,4.88
2022-12-23T08:47:10.429Z,4.92
2022-12-23T08:49:37.498Z,4.86
2022-12-23T08:52:04.986Z,4.87
2022-12-23T08:54:32.095Z,4.77
2022-12-23T08:56:59.868Z,4.90
2022-12-23T08:59:27.042Z,4.80
2022-12-23T09:01:54.722Z,4.86
2022-12-23T09:04:21.973Z,4.91
2022-12-23T09:06:49.496Z,4.79
2022-12-23T09:09:16.717Z,4.83
2022-12-23T09:11:44.576Z,4.88
2022-12-23T09:14:12.130Z,4.85
2022-12-23T09:16:39.854Z,4.85
2022-12-23T09:19:07.798Z,4.95
2022-12-23T09:21:35.483Z,4.88
2022-12-23T09:24:02.611Z,4.82
2022-12-23T09:26:31.384Z,4.74
2022-12-23T09:28:59.321Z,4.76
2022-12-23T09:31:34.090Z,4.84
2022-12-23T09:34:04.057Z,4.77
2022-12-23T09:36:31.910Z,4.81
2022-12-23T09:38:59.420Z,4.75
2022-12-23T09:41:42.872Z,4.64
2022-12-23T09:44:53.761Z,4.71
2022-12-23T09:47:25.389Z,4.77
2022-12-23T09:49:57.411Z,4.96
2022-12-23T09:52:37.657Z,4.82
2022-12-23T09:55:06.621Z,4.81
2022-12-23T09:57:45.660Z,4.86
2022-12-23T10:00:18.623Z,5.09
2022-12-23T10:02:58.536Z,4.94
2022-12-23T10:05:38.153Z,5.58
2022-12-23T10:08:11.842Z,5.60
2022-12-23T10:10:57.019Z,5.18
2022-12-23T10:13:45.329Z,4.90
2022-12-23T10:16:29.939Z,4.91
2022-12-23T10:19:02.946Z,5.31
2022-12-23T10:21:32.416Z,5.23
2022-12-23T10:24:05.285Z,5.21
2022-12-23T10:26:40.063Z,5.06
2022-12-23T10:29:30.227Z,5.79
2022-12-23T10:32:17.699Z,5.49
2022-12-23T10:35:39.656Z,5.53
2022-12-23T10:38:23.612Z,5.50
2022-12-23T10:41:10.708Z,5.56
2022-12-23T10:43:47.423Z,5.63
2022-12-23T10:46:46.370Z,5.80
2022-12-23T10:49:20.322Z,5.57
2022-12-23T10:52:18.129Z,5.73
2022-12-23T10:54:47.722Z,5.61
2022-12-23T10:57:18.563Z,5.73
2022-12-23T10:59:46.667Z,5.73
2022-12-23T11:02:15.198Z,5.61
2022-12-23T11:04:55.357Z,5.55
2022-12-23T11:07:46.641Z,5.68
2022-12-23T11:10:20.980Z,5.68
2022-12-23T11:12:51.810Z,5.65
2022-12-23T11:15:35.058Z,5.50
2022-12-23T11:18:07.301Z,5.63
2022-12-23T11:20:36.512Z,5.60
2022-12-23T11:23:05.991Z,5.63
2022-12-23T11:25:41.280Z,5.83
2022-12-23T11:28:11.824Z,5.95
2022-12-23T11:30:56.863Z,5.50
2022-12-23T11:33:31.372Z,5.69
2022-12-23T11:36:24.283Z,5.79
2022-12-23T11:39:09.707Z,5.69
2022-12-23T11:41:43.687Z,5.58
2022-12-23T11:44:20.326Z,5.76
2022-12-23T11:46:48.407Z,5.76
2022-12-23T11:49:20.596Z,5.76
2022-12-23T11:52:02.933Z,5.79
2022-12-23T11:54:31.323Z,5.54
2022-12-23T11:56:59.233Z,5.70
2022-12-23T11:59:31.853Z,5.77
2022-12-23T12:02:02.588Z,5.84
2022-12-23T12:04:34.678Z,6.15
2022-12-23T12:07:04.364Z,5.76
2022-12-23T12:09:32.544Z,6.01
2022-12-23T12:12:16.608Z,6.13
2022-12-23T12:14:52.898Z,6.11
2022-12-23T12:17:23.277Z,5.88
2022-12-23T12:20:00.508Z,5.99
2022-12-23T12:22:36.681Z,5.96
2022-12-23T12:25:39.513Z,6.05
2022-12-23T12:28:14.013Z,6.12
2022-12-23T12:30:54.223Z,5.92
2022-12-23T12:33:30.351Z,5.94
2022-12-23T12:36:18.787Z,5.96
2022-12-23T12:38:49.112Z,5.97
2022-12-23T12:41:23.150Z,5.85
2022-12-23T12:44:03.703Z,5.85
2022-12-23T12:46:37.969Z,6.06
2022-12-23T12:49:17.205Z,6.07
2022-12-23T12:52:13.990Z,5.99
2022-12-23T12:54:47.141Z,5.82
2022-12-23T12:57:17.777Z,5.95
2022-12-23T12:59:45.768Z,5.93
2022-12-23T13:02:25.015Z,5.79
2022-12-23T13:05:17.118Z,6.00
2022-12-23T13:08:12.722Z,6.07
2022-12-23T13:10:56.997Z,6.16
2022-12-23T13:13:45.662Z,6.16
2022-12-23T13:16:34.485Z,6.16
2022-12-23T13:19:33.395Z,6.27
2022-12-23T13:22:17.078Z,6.16
2022-12-23T13:25:12.532Z,6.23
2022-12-23T13:28:05.845Z,6.48
2022-12-23T13:30:46.354Z,6.39
2022-12-23T13:33:33.772Z,6.12
2022-12-23T13:36:22.290Z,6.24
2022-12-23T13:39:06.652Z,6.18
2022-12-23T13:41:42.396Z,6.30
2022-12-23T13:44:11.400Z,6.17
2022-12-23T13:47:06.575Z,6.31
2022-12-23T13:49:54.822Z,6.27
2022-12-23T13:52:34.228Z,6.40
2022-12-23T13:55:39.053Z,6.01
2022-12-23T13:58:18.531Z,6.19
2022-12-23T14:00:46.262Z,6.15
2022-12-23T14:03:20.030Z,6.40
2022-12-23T14:05:50.699Z,6.11
2022-12-23T14:08:18.387Z,6.23
2022-12-23T14:11:00.808Z,6.33
2022-12-23T14:13:32.988Z,5.93
2022-12-23T14:16:18.430Z,6.13
2022-12-23T14:18:49.174Z,5.90
2022-12-23T14:21:38.865Z,5.88
2022-12-23T14:24:09.449Z,5.98
2022-12-23T14:26:59.861Z,5.92
2022-12-23T14:29:30.259Z,6.02
2022-12-23T14:31:58.234Z,6.06
2022-12-23T14:34:30.348Z,6.11
2022-12-23T14:37:25.706Z,5.84
2022-12-23T14:39:53.405Z,5.83
2022-12-23T14:42:43.154Z,5.91
2022-12-23T14:45:41.415Z,5.81
2022-12-23T14:48:33.805Z,5.75
2022-12-23T14:51:35.593Z,5.82
2022-12-23T14:54:02.783Z,5.71
2022-12-23T14:56:39.035Z,5.82
2022-12-23T14:59:16.026Z,5.73
2022-12-23T15:01:52.901Z,5.75
2022-12-23T15:04:30.647Z,5.70
2022-12-23T15:07:15.211Z,5.70
2022-12-23T15:10:00.503Z,5.67
2022-12-23T15:12:33.155Z,5.74
2022-12-23T15:15:04.699Z,5.83
2022-12-23T15:17:37.031Z,5.86
2022-12-23T15:20:10.846Z,5.73
2022-12-23T15:22:39.797Z,5.83
2022-12-23T15:25:19.529Z,5.75
2022-12-23T15:27:49.004Z,5.70
2022-12-23T15:30:17.885Z,5.60
2022-12-23T15:32:48.370Z,5.69
2022-12-23T15:35:32.484Z,5.64
2022-12-23T15:38:02.181Z,5.73
2022-12-23T15:40:36.769Z,5.70
2022-12-23T15:43:18.205Z,5.60
2022-12-23T15:45:47.659Z,5.68
2022-12-23T15:48:29.848Z,5.61
2022-12-23T15:51:05.434Z,5.63
2022-12-23T15:53:37.214Z,5.54
2022-12-23T15:56:09.198Z,5.49
2022-12-23T15:58:40.486Z,5.66
2022-12-23T16:01:13.805Z,5.73
2022-12-23T16:03:44.950Z,5.63
2022-12-23T16:06:24.494Z,5.48
2022-12-23T16:09:01.747Z,5.39
2022-12-23T16:12:04.470Z,5.53
2022-12-23T16:14:34.910Z,5.51
2022-12-23T16:17:14.241Z,5.67
2022-12-23T16:19:51.802Z,5.59
2022-12-23T16:22:33.848Z,5.49
2022-12-23T16:25:33.093Z,5.56
2022-12-23T16:28:08.267Z,5.39
2022-12-23T16:30:42.045Z,5.45
2022-12-23T16:33:26.573Z,5.50
2022-12-23T16:35:56.178Z,5.02
2022-12-23T16:38:27.995Z,4.81
2022-12-23T16:40:57.725Z,4.97
2022-12-23T16:43:25.897Z,4.96
2022-12-23T16:45:57.711Z,4.90
2022-12-23T16:48:36.295Z,4.93
2022-12-23T16:51:11.263Z,5.00
2022-12-23T16:53:38.937Z,4.99
2022-12-23T16:56:12.715Z,5.14
2022-12-23T16:58:40.277Z,5.08
2022-12-23T17:01:18.051Z,4.90
2022-12-23T17:03:45.497Z,5.09
2022-12-23T17:06:15.488Z,5.10
2022-12-23T17:08:43.306Z,5.00
2022-12-23T17:11:18.457Z,4.91
2022-12-23T17:13:45.989Z,4.97
2022-12-23T17:16:16.139Z,5.14
2022-12-23T17:18:43.850Z,5.01
2022-12-23T17:21:20.500Z,5.00
2022-12-23T17:23:49.131Z,5.08
2022-12-23T17:26:16.940Z,5.45
2022-12-23T17:28:44.175Z,5.60
2022-12-23T17:31:15.509Z,5.27
2022-12-23T17:33:45.391Z,5.08
2022-12-23T17:36:14.924Z,5.04
2022-12-23T17:38:42.544Z,5.09
2022-12-23T17:41:29.826Z,5.28
2022-12-23T17:43:57.812Z,5.04
2022-12-23T17:46:26.749Z,5.11
2022-12-23T17:48:54.305Z,5.49
2022-12-23T17:51:23.258Z,5.84
2022-12-23T17:53:57.640Z,5.72
2022-12-23T17:56:28.735Z,5.60
2022-12-23T17:58:56.178Z,5.48
2022-12-23T18:01:29.866Z,5.35
2022-12-23T18:03:59.299Z,4.75
2022-12-23T18:06:29.026Z,4.75
2022-12-23T18:08:59.343Z,4.58
2022-12-23T18:11:53.379Z,4.83
2022-12-23T18:14:29.013Z,4.57
2022-12-23T18:16:56.906Z,4.59
2022-12-23T18:19:24.932Z,4.43
2022-12-23T18:21:52.865Z,4.36
2022-12-23T18:24:20.087Z,4.36
2022-12-23T18:26:47.805Z,4.44
2022-12-23T18:29:15.131Z,4.21
2022-12-23T18:31:51.495Z,4.13
2022-12-23T18:34:21.329Z,3.97
2022-12-23T18:36:51.955Z,4.07
2022-12-23T18:39:20.266Z,3.96
2022-12-23T18:41:48.220Z,3.85
2022-12-23T18:44:19.887Z,3.72
2022-12-23T18:46:48.348Z,4.00
2022-12-23T18:49:15.658Z,3.74
2022-12-23T18:51:43.240Z,3.72
2022-12-23T18:54:15.231Z,3.82
2022-12-23T18:56:43.563Z,3.75
2022-12-23T18:59:24.342Z,3.75
2022-12-23T19:01:57.615Z,3.62
2022-12-23T19:04:26.544Z,3.50
2022-12-23T19:06:55.497Z,3.40
2022-12-23T19:09:24.648Z,3.50
2022-12-23T19:11:53.533Z,3.39
2022-12-23T19:14:21.143Z,3.30
2022-12-23T19:16:51.920Z,3.31
2022-12-23T19:19:21.045Z,3.22
2022-12-23T19:21:48.907Z,3.15
2022-12-23T19:24:16.311Z,3.01
2022-12-23T19:26:44.300Z,3.14
2022-12-23T19:29:12.045Z,3.23
2022-12-23T19:31:39.873Z,2.99
2022-12-23T19:34:14.351Z,2.96
2022-12-23T19:36:43.527Z,2.89
2022-12-23T19:39:16.384Z,2.76
2022-12-23T19:41:45.275Z,2.68
2022-12-23T19:44:12.686Z,2.65
2022-12-23T19:46:40.446Z,2.73
2022-12-23T19:49:08.511Z,2.86
2022-12-23T19:51:37.747Z,2.63
2022-12-23T19:54:05.086Z,2.72
2022-12-23T19:56:32.920Z,2.61
2022-12-23T19:59:00.644Z,2.87
2022-12-23T20:01:29.026Z,2.75
2022-12-23T20:03:57.098Z,2.81
2022-12-23T20:06:29.447Z,2.67
2022-12-23T20:09:00.981Z,2.59
2022-12-23T20:11:32.099Z,2.59
2022-12-23T20:14:01.683Z,2.46
2022-12-23T20:16:31.297Z,2.65
2022-12-23T20:18:58.900Z,2.52
2022-12-23T20:21:27.249Z,2.67
2022-12-23T20:23:56.032Z,2.49
2022-12-23T20:26:24.564Z,2.36
2022-12-23T20:28:53.089Z,2.35
2022-12-23T20:31:22.667Z,2.09
2022-12-23T20:33:52.198Z,2.00
2022-12-23T20:36:23.815Z,1.92
2022-12-23T20:38:52.331Z,1.85
2022-12-23T20:41:25.488Z,1.69
2022-12-23T20:44:31.801Z,1.28
2022-12-23T20:46:44.272Z,1.34
2022-12-23T20:49:12.147Z,1.17
2022-12-23T20:51:39.660Z,1.39
2022-12-23T20:54:07.384Z,1.19
2022-12-23T20:56:35.331Z,1.48
2022-12-23T20:59:04.418Z,1.28
2022-12-23T21:01:39.214Z,1.38
2022-12-23T21:04:11.848Z,1.28
2022-12-23T21:06:40.690Z,1.28
2022-12-23T21:09:12.027Z,1.35
2022-12-23T21:11:43.265Z,1.33
2022-12-23T21:14:11.957Z,1.21
2022-12-23T21:16:40.336Z,1.50
2022-12-23T21:19:12.873Z,1.22
2022-12-23T21:21:41.266Z,1.26
2022-12-23T21:24:10.733Z,1.17
2022-12-23T21:26:39.209Z,1.27
2022-12-23T21:29:08.322Z,1.37
2022-12-23T21:31:39.510Z,1.45
2022-12-23T21:34:07.564Z,1.58
2022-12-23T21:36:37.912Z,1.64
2022-12-23T21:39:07.297Z,1.46
2022-12-23T21:41:38.758Z,1.42
2022-12-23T21:44:07.101Z,1.27
2022-12-23T21:46:35.591Z,1.13
2022-12-23T21:49:03.642Z,1.13
2022-12-23T21:51:41.992Z,0.71
2022-12-23T21:54:11.580Z,0.81
2022-12-23T21:56:40.848Z,0.88
2022-12-23T21:59:12.596Z,0.73
2022-12-23T22:01:41.768Z,0.86
2022-12-23T22:04:09.285Z,0.71
2022-12-23T22:06:40.413Z,0.78
2022-12-23T22:09:08.044Z,0.83
2022-12-23T22:11:37.120Z,0.87
2022-12-23T22:14:07.108Z,1.15
2022-12-23T22:16:35.800Z,1.12
2022-12-23T22:19:05.069Z,0.43
2022-12-23T22:21:34.609Z,0.29
2022-12-23T22:24:03.207Z,0.39
2022-12-23T22:26:33.031Z,0.60
2022-12-23T22:29:03.592Z,0.44
2022-12-23T22:31:34.500Z,0.56
2022-12-23T22:34:02.270Z,0.60
2022-12-23T22:36:30.470Z,0.66
2022-12-23T22:39:00.156Z,0.68
2022-12-23T22:41:29.885Z,0.26
2022-12-23T22:43:58.231Z,0.26
2022-12-23T22:46:26.757Z,0.32
2022-12-23T22:48:54.959Z,0.54
2022-12-23T22:51:25.999Z,0.48
2022-12-23T22:53:53.763Z,0.14
2022-12-23T22:56:23.430Z,0.41
2022-12-23T22:58:51.877Z,0.39
2022-12-23T23:01:26.519Z,0.34
2022-12-23T23:03:58.901Z,0.11
2022-12-23T23:06:32.157Z,0.36
2022-12-23T23:08:59.990Z,-0.13
2022-12-23T23:11:28.142Z,0.15
2022-12-23T23:13:55.917Z,0.24
2022-12-23T23:16:24.412Z,0.03
2022-12-23T23:18:52.793Z,0.16
2022-12-23T23:21:21.048Z,0.10
2022-12-23T23:23:48.460Z,0.25
2022-12-23T23:26:17.052Z,0.04
2022-12-23T23:28:44.523Z,-0.05
2022-12-23T23:33:59.796Z,-0.34
2022-12-23T23:36:27.359Z,-0.28
2022-12-23T23:38:54.571Z,-0.32
2022-12-23T23:41:23.740Z,-0.03
2022-12-23T23:43:52.064Z,0.01
2022-12-23T23:46:19.946Z,0.04
2022-12-23T23:48:47.210Z,-0.24
2022-12-23T23:51:14.661Z,-0.18
2022-12-23T23:53:41.866Z,-0.42
2022-12-23T23:56:09.601Z,-0.41
2022-12-23T23:58:37.742Z,-0.39
